createdAt,value
2019-05-20T00:00:17.310Z,8.63
2019-05-20T00:02:47.500Z,9.63
2019-05-20T00:05:16.820Z,9.10
2019-05-20T00:07:46.142Z,10.30
2019-05-20T00:10:16.741Z,10.03
2019-05-20T00:12:46.056Z,9.40
2019-05-20T00:15:15.437Z,11.07
2019-05-20T00:17:57.445Z,10.67
2019-05-20T00:20:27.304Z,11.20
2019-05-20T00:22:56.613Z,11.13
2019-05-20T00:25:26.900Z,10.97
2019-05-20T00:27:56.207Z,10.83
2019-05-20T00:30:27.187Z,11.30
2019-05-20T00:32:56.510Z,11.00
2019-05-20T00:35:25.817Z,11.90
2019-05-20T00:37:56.479Z,12.53
2019-05-20T00:40:25.848Z,12.40
2019-05-20T00:42:55.158Z,11.67
2019-05-20T00:45:24.473Z,11.47
2019-05-20T00:47:53.780Z,12.03
2019-05-20T00:50:23.141Z,11.67
2019-05-20T00:52:52.504Z,11.33
2019-05-20T00:55:27.963Z,10.53
2019-05-20T00:57:58.641Z,12.43
2019-05-20T01:00:28.116Z,11.07
2019-05-20T01:02:57.719Z,10.80
2019-05-20T01:05:27.132Z,11.03
2019-05-20T01:07:56.510Z,10.93
2019-05-20T01:10:25.821Z,11.70
2019-05-20T01:12:55.147Z,10.80
2019-05-20T01:15:24.447Z,10.70
2019-05-20T01:17:53.752Z,11.40
2019-05-20T01:20:23.908Z,10.40
2019-05-20T01:22:53.236Z,10.27
2019-05-20T01:25:22.544Z,10.97
2019-05-20T01:27:51.851Z,10.87
2019-05-20T01:30:21.612Z,11.50
2019-05-20T01:32:54.545Z,11.20
2019-05-20T01:35:23.848Z,11.47
2019-05-20T01:37:53.160Z,12.00
2019-05-20T01:40:22.481Z,11.70
2019-05-20T01:42:51.845Z,11.60
2019-05-20T01:45:21.204Z,10.57
2019-05-20T01:47:50.504Z,10.73
2019-05-20T01:50:19.819Z,10.37
2019-05-20T01:52:50.073Z,11.30
2019-05-20T01:55:19.380Z,11.47
2019-05-20T01:57:50.027Z,11.63
2019-05-20T02:00:19.471Z,12.20
2019-05-20T02:02:48.849Z,11.93
2019-05-20T02:05:18.172Z,11.70
2019-05-20T02:07:48.528Z,12.10
2019-05-20T02:10:18.183Z,11.87
2019-05-20T02:12:47.490Z,12.00
2019-05-20T02:15:19.069Z,12.53
2019-05-20T02:17:48.367Z,12.93
2019-05-20T02:20:17.728Z,13.50
2019-05-20T02:22:47.043Z,14.10
2019-05-20T02:25:17.792Z,13.20
2019-05-20T02:27:47.117Z,13.63
2019-05-20T02:30:16.781Z,12.67
2019-05-20T02:32:46.098Z,12.13
2019-05-20T02:35:15.412Z,13.23
2019-05-20T02:37:44.715Z,13.80
2019-05-20T02:40:15.244Z,13.37
2019-05-20T02:42:44.547Z,12.57
2019-05-20T02:45:14.009Z,12.63
2019-05-20T02:47:43.313Z,13.33
2019-05-20T02:50:12.809Z,12.43
2019-05-20T02:52:42.789Z,13.30
2019-05-20T02:55:12.252Z,12.77
2019-05-20T02:57:41.636Z,12.87
2019-05-20T03:00:11.251Z,13.70
2019-05-20T03:02:40.565Z,13.53
2019-05-20T03:05:10.413Z,13.20
2019-05-20T03:07:39.729Z,14.03
2019-05-20T03:10:09.112Z,14.20
2019-05-20T03:12:38.491Z,12.93
2019-05-20T03:15:07.826Z,13.87
2019-05-20T03:17:37.121Z,12.67
2019-05-20T03:20:06.880Z,12.27
2019-05-20T03:22:36.196Z,13.27
2019-05-20T03:25:09.380Z,12.63
2019-05-20T03:27:38.826Z,14.00
2019-05-20T03:30:08.981Z,14.43
2019-05-20T03:32:38.359Z,14.17
2019-05-20T03:35:08.717Z,13.53
2019-05-20T03:37:39.355Z,13.40
2019-05-20T03:40:09.084Z,13.43
2019-05-20T03:42:40.969Z,13.30
2019-05-20T03:45:10.837Z,13.70
2019-05-20T03:47:40.198Z,13.57
2019-05-20T03:50:10.057Z,13.63
2019-05-20T03:52:39.371Z,12.57
2019-05-20T03:55:09.708Z,12.90
2019-05-20T03:57:39.033Z,12.97
2019-05-20T04:00:11.230Z,14.60
2019-05-20T04:02:40.550Z,12.03
2019-05-20T04:05:09.924Z,12.60
2019-05-20T04:07:39.249Z,12.87
2019-05-20T04:10:09.462Z,13.13
2019-05-20T04:12:38.777Z,18.00
2019-05-20T04:15:08.243Z,20.37
2019-05-20T04:17:38.102Z,21.90
2019-05-20T04:20:08.325Z,23.27
2019-05-20T04:22:37.706Z,25.47
2019-05-20T04:25:07.594Z,66.37
2019-05-20T04:27:36.915Z,39.47
2019-05-20T04:30:07.694Z,34.33
2019-05-20T04:32:37.038Z,27.57
2019-05-20T04:35:21.583Z,27.77
2019-05-20T04:37:37.524Z,27.87
2019-05-20T04:40:07.287Z,136.93
2019-05-20T04:42:36.679Z,48.03
2019-05-20T04:45:07.642Z,36.43
2019-05-20T04:47:37.028Z,33.37
2019-05-20T04:50:08.140Z,29.23
2019-05-20T04:52:37.451Z,28.80
2019-05-20T04:55:07.674Z,29.33
2019-05-20T04:57:36.983Z,27.83
2019-05-20T05:00:08.312Z,29.37
2019-05-20T05:02:38.586Z,29.70
2019-05-20T05:05:08.443Z,29.97
2019-05-20T05:07:37.828Z,28.23
2019-05-20T05:10:08.530Z,29.13
2019-05-20T05:12:38.184Z,28.57
2019-05-20T05:15:09.428Z,28.30
2019-05-20T05:17:38.754Z,26.73
2019-05-20T05:20:17.625Z,29.50
2019-05-20T05:22:39.444Z,61.30
2019-05-20T05:25:08.897Z,43.33
2019-05-20T05:27:38.214Z,30.90
2019-05-20T05:30:08.681Z,32.67
2019-05-20T05:32:41.375Z,27.17
2019-05-20T05:35:16.389Z,28.77
2019-05-20T05:37:47.413Z,27.60
2019-05-20T05:40:18.565Z,27.47
2019-05-20T05:42:47.902Z,28.80
2019-05-20T05:45:20.963Z,27.97
2019-05-20T05:47:50.280Z,28.70
2019-05-20T05:50:19.593Z,58.17
2019-05-20T05:52:48.912Z,29.57
2019-05-20T05:55:18.213Z,29.67
2019-05-20T05:57:47.529Z,30.63
2019-05-20T06:00:17.187Z,34.83
2019-05-20T06:02:46.502Z,29.67
2019-05-20T06:05:15.818Z,29.30
2019-05-20T06:07:45.124Z,29.57
2019-05-20T06:10:14.570Z,31.30
2019-05-20T06:12:43.877Z,33.00
2019-05-20T06:15:13.830Z,30.90
2019-05-20T06:17:43.135Z,33.23
2019-05-20T06:20:13.174Z,30.03
2019-05-20T06:22:42.477Z,30.87
2019-05-20T06:25:13.130Z,30.90
2019-05-20T06:27:42.436Z,39.03
2019-05-20T06:30:12.789Z,32.47
2019-05-20T06:32:42.109Z,35.37
2019-05-20T06:35:11.916Z,32.50
2019-05-20T06:37:58.760Z,30.63
2019-05-20T06:40:28.665Z,29.47
2019-05-20T06:42:58.008Z,29.33
2019-05-20T06:45:27.377Z,40.17
2019-05-20T06:47:56.680Z,26.70
2019-05-20T06:50:29.511Z,28.80
2019-05-20T06:52:57.021Z,27.53
2019-05-20T06:55:26.328Z,29.63
2019-05-20T06:57:55.636Z,28.63
2019-05-20T07:00:33.988Z,51.70
2019-05-20T07:03:03.566Z,52.87
2019-05-20T07:05:33.100Z,30.50
2019-05-20T07:08:03.740Z,30.47
2019-05-20T07:10:33.055Z,30.27
2019-05-20T07:13:02.833Z,28.90
2019-05-20T07:15:33.206Z,28.20
2019-05-20T07:18:02.521Z,29.27
2019-05-20T07:20:31.828Z,44.70
2019-05-20T07:23:01.195Z,41.60
2019-05-20T07:25:30.725Z,33.00
2019-05-20T07:28:00.160Z,34.80
2019-05-20T07:30:29.487Z,32.13
2019-05-20T07:32:58.804Z,31.83
2019-05-20T07:35:30.789Z,33.50
2019-05-20T07:37:59.327Z,35.73
2019-05-20T07:40:31.839Z,35.23
2019-05-20T07:43:01.390Z,34.63
2019-05-20T07:45:34.394Z,35.43
2019-05-20T07:48:05.036Z,35.63
2019-05-20T07:50:37.253Z,35.70
2019-05-20T07:53:07.516Z,36.60
2019-05-20T07:55:39.904Z,45.17
2019-05-20T07:58:10.142Z,38.87
2019-05-20T08:00:39.585Z,36.70
2019-05-20T08:03:08.913Z,35.37
2019-05-20T08:05:38.204Z,35.00
2019-05-20T08:08:07.518Z,34.47
2019-05-20T08:10:39.855Z,33.50
2019-05-20T08:13:09.168Z,33.93
2019-05-20T08:15:38.479Z,32.13
2019-05-20T08:18:08.009Z,35.37
2019-05-20T08:20:37.316Z,31.57
2019-05-20T08:23:06.740Z,32.60
2019-05-20T08:25:36.048Z,29.13
2019-05-20T08:28:05.352Z,28.60
2019-05-20T08:30:36.810Z,28.53
2019-05-20T08:33:06.593Z,28.43
2019-05-20T08:35:35.913Z,28.90
2019-05-20T08:38:07.229Z,28.23
2019-05-20T08:40:37.039Z,29.40
2019-05-20T08:43:06.353Z,28.90
2019-05-20T08:45:35.726Z,27.47
2019-05-20T08:48:05.098Z,26.77
2019-05-20T08:50:34.761Z,26.43
2019-05-20T08:53:04.158Z,27.20
2019-05-20T08:55:33.469Z,25.67
2019-05-20T08:58:02.813Z,26.47
2019-05-20T09:00:32.206Z,26.43
2019-05-20T09:03:01.566Z,26.47
2019-05-20T09:05:30.879Z,25.80
2019-05-20T09:08:03.419Z,25.43
2019-05-20T09:10:31.244Z,24.37
2019-05-20T09:13:00.606Z,26.17
2019-05-20T09:15:30.044Z,24.40
2019-05-20T09:17:59.534Z,25.27
2019-05-20T09:20:29.366Z,24.37
2019-05-20T09:23:02.378Z,22.47
2019-05-20T09:25:31.456Z,23.53
2019-05-20T09:28:01.201Z,24.87
2019-05-20T09:30:31.576Z,22.53
2019-05-20T09:33:01.006Z,25.17
2019-05-20T09:35:30.368Z,22.73
2019-05-20T09:38:00.644Z,22.13
2019-05-20T09:40:42.387Z,22.80
2019-05-20T09:43:11.729Z,22.97
2019-05-20T09:45:41.133Z,23.10
2019-05-20T09:48:11.172Z,23.20
2019-05-20T09:50:40.485Z,21.70
2019-05-20T09:53:10.164Z,22.67
2019-05-20T09:55:40.106Z,23.83
2019-05-20T09:58:09.493Z,25.07
2019-05-20T10:00:38.816Z,22.43
2019-05-20T10:03:08.123Z,22.53
2019-05-20T10:05:37.975Z,23.47
2019-05-20T10:08:08.600Z,22.87
2019-05-20T10:10:37.927Z,24.40
2019-05-20T10:13:08.277Z,24.83
2019-05-20T10:15:38.021Z,26.60
2019-05-20T10:18:07.410Z,24.13
2019-05-20T10:20:36.809Z,24.80
2019-05-20T10:23:06.156Z,26.23
2019-05-20T10:25:35.493Z,23.53
2019-05-20T10:28:04.877Z,23.83
2019-05-20T10:30:34.453Z,26.17
2019-05-20T10:33:09.059Z,24.43
2019-05-20T10:35:34.774Z,23.43
2019-05-20T10:38:04.288Z,24.37
2019-05-20T10:40:33.613Z,25.37
2019-05-20T10:43:04.871Z,24.87
2019-05-20T10:45:34.663Z,25.63
2019-05-20T10:48:04.588Z,25.47
2019-05-20T10:50:35.222Z,25.83
2019-05-20T10:53:04.528Z,26.37
2019-05-20T10:55:34.898Z,25.80
2019-05-20T10:58:04.656Z,27.27
2019-05-20T11:00:34.951Z,25.67
2019-05-20T11:03:04.329Z,25.80
2019-05-20T11:05:33.637Z,27.07
2019-05-20T11:08:02.984Z,27.03
2019-05-20T11:10:32.344Z,27.10
2019-05-20T11:13:02.812Z,27.57
2019-05-20T11:15:32.205Z,28.90
2019-05-20T11:18:01.531Z,28.07
2019-05-20T11:20:30.840Z,30.00
2019-05-20T11:23:01.237Z,29.80
2019-05-20T11:25:30.886Z,31.03
2019-05-20T11:28:00.305Z,29.77
2019-05-20T11:30:31.151Z,30.93
2019-05-20T11:33:00.533Z,29.20
2019-05-20T11:35:29.840Z,29.07
2019-05-20T11:37:59.173Z,31.50
2019-05-20T11:40:28.476Z,31.23
2019-05-20T11:42:57.789Z,31.37
2019-05-20T11:45:29.137Z,31.03
2019-05-20T11:47:59.536Z,30.63
2019-05-20T11:50:28.939Z,31.50
2019-05-20T11:52:58.251Z,31.83
2019-05-20T11:55:27.851Z,32.10
2019-05-20T11:58:12.821Z,30.97
2019-05-20T12:00:29.253Z,31.57
2019-05-20T12:02:58.579Z,30.30
2019-05-20T12:05:27.953Z,33.73
2019-05-20T12:07:57.267Z,33.47
2019-05-20T12:10:26.574Z,34.80
2019-05-20T12:12:55.897Z,34.23
2019-05-20T12:15:26.272Z,34.73
2019-05-20T12:17:55.595Z,33.77
2019-05-20T12:20:24.904Z,34.83
2019-05-20T12:22:54.217Z,35.97
2019-05-20T12:25:23.544Z,34.17
2019-05-20T12:27:52.852Z,34.20
2019-05-20T12:30:22.310Z,32.57
2019-05-20T12:33:15.625Z,34.47
2019-05-20T12:35:23.063Z,35.00
2019-05-20T12:37:53.314Z,33.00
2019-05-20T12:40:22.956Z,33.40
2019-05-20T12:42:52.337Z,33.33
2019-05-20T12:45:22.694Z,32.77
2019-05-20T12:47:54.641Z,36.00
2019-05-20T12:50:24.189Z,34.10
2019-05-20T12:52:53.502Z,34.33
2019-05-20T12:55:22.817Z,34.30
2019-05-20T12:57:52.123Z,35.23
2019-05-20T13:00:24.496Z,35.03
2019-05-20T13:02:53.862Z,34.20
2019-05-20T13:05:23.500Z,33.03
2019-05-20T13:07:52.817Z,33.90
2019-05-20T13:10:30.239Z,34.10
2019-05-20T13:12:54.197Z,33.30
2019-05-20T13:15:23.686Z,33.33
2019-05-20T13:17:53.539Z,33.73
2019-05-20T13:20:22.920Z,34.03
2019-05-20T13:22:52.243Z,34.27
2019-05-20T13:25:21.548Z,35.03
2019-05-20T13:27:50.863Z,34.33
2019-05-20T13:30:22.021Z,34.03
2019-05-20T13:32:51.439Z,36.03
2019-05-20T13:35:20.805Z,34.47
2019-05-20T13:37:51.022Z,36.20
2019-05-20T13:40:20.406Z,35.37
2019-05-20T13:42:49.713Z,36.80
2019-05-20T13:45:19.192Z,37.30
2019-05-20T13:47:48.549Z,35.97
2019-05-20T13:50:19.492Z,37.60
2019-05-20T13:52:48.792Z,36.83
2019-05-20T13:55:18.110Z,35.90
2019-05-20T13:57:47.424Z,39.23
2019-05-20T14:00:17.006Z,35.60
2019-05-20T14:02:46.337Z,34.57
2019-05-20T14:05:15.643Z,38.67
2019-05-20T14:07:44.957Z,38.50
2019-05-20T14:10:14.952Z,38.47
2019-05-20T14:12:44.250Z,37.40
2019-05-20T14:15:13.704Z,37.87
2019-05-20T14:17:44.414Z,39.57
2019-05-20T14:20:14.293Z,37.13
2019-05-20T14:22:43.658Z,38.43
2019-05-20T14:25:13.416Z,39.80
2019-05-20T14:27:42.716Z,39.00
2019-05-20T14:30:12.572Z,38.77
2019-05-20T14:32:41.917Z,38.20
2019-05-20T14:35:11.251Z,39.07
2019-05-20T14:37:40.573Z,39.83
2019-05-20T14:40:10.610Z,39.43
2019-05-20T14:42:39.919Z,39.00
2019-05-20T14:45:09.412Z,39.37
2019-05-20T14:47:39.801Z,39.57
2019-05-20T14:50:09.942Z,38.30
2019-05-20T14:52:40.199Z,37.83
2019-05-20T14:55:09.948Z,38.90
2019-05-20T14:57:39.270Z,39.43
2019-05-20T15:00:08.921Z,40.80
2019-05-20T15:02:38.247Z,36.27
2019-05-20T15:05:08.589Z,39.20
2019-05-20T15:07:37.895Z,39.47
2019-05-20T15:10:10.462Z,39.13
2019-05-20T15:13:00.147Z,40.03
2019-05-20T15:15:29.930Z,37.10
2019-05-20T15:17:59.242Z,41.10
2019-05-20T15:20:28.554Z,39.77
2019-05-20T15:22:57.929Z,39.80
2019-05-20T15:25:27.277Z,38.77
2019-05-20T15:27:56.582Z,39.17
2019-05-20T15:30:25.897Z,38.93
2019-05-20T15:32:55.199Z,37.77
2019-05-20T15:35:24.506Z,39.50
2019-05-20T15:37:54.671Z,37.50
2019-05-20T15:40:24.597Z,38.70
2019-05-20T15:42:54.281Z,40.13
2019-05-20T15:45:23.593Z,39.50
2019-05-20T15:47:53.260Z,39.20
2019-05-20T15:50:22.591Z,39.43
2019-05-20T15:52:53.014Z,40.07
2019-05-20T15:55:22.353Z,37.07
2019-05-20T15:57:51.647Z,40.93
2019-05-20T16:00:21.700Z,39.43
2019-05-20T16:02:51.005Z,39.77
2019-05-20T16:05:20.325Z,39.97
2019-05-20T16:07:50.219Z,40.20
2019-05-20T16:10:19.527Z,40.23
2019-05-20T16:12:48.828Z,41.30
2019-05-20T16:15:18.228Z,41.43
2019-05-20T16:17:48.605Z,40.40
2019-05-20T16:20:19.161Z,41.70
2019-05-20T16:22:48.779Z,42.23
2019-05-20T16:25:18.325Z,43.40
2019-05-20T16:27:47.644Z,45.10
2019-05-20T16:30:18.067Z,47.67
2019-05-20T16:32:47.414Z,46.93
2019-05-20T16:35:16.716Z,46.50
2019-05-20T16:37:46.029Z,50.03
2019-05-20T16:40:16.684Z,51.10
2019-05-20T16:42:45.993Z,52.60
2019-05-20T16:45:17.357Z,47.73
2019-05-20T16:47:46.679Z,47.57
2019-05-20T16:50:16.625Z,48.80
2019-05-20T16:52:46.073Z,46.47
2019-05-20T16:55:17.302Z,45.20
2019-05-20T16:57:46.709Z,44.67
2019-05-20T17:00:30.487Z,42.50
2019-05-20T17:02:48.736Z,40.97
2019-05-20T17:05:19.156Z,39.07
2019-05-20T17:07:48.463Z,40.33
2019-05-20T17:10:17.840Z,38.23
2019-05-20T17:12:47.210Z,36.53
2019-05-20T17:15:17.033Z,38.93
2019-05-20T17:17:46.406Z,38.43
2019-05-20T17:20:15.804Z,39.87
2019-05-20T17:22:45.117Z,37.80
2019-05-20T17:25:14.750Z,36.57
2019-05-20T17:27:44.069Z,35.33
2019-05-20T17:30:13.738Z,32.37
2019-05-20T17:32:44.666Z,31.37
2019-05-20T17:35:14.457Z,28.70
2019-05-20T17:37:43.798Z,28.33
2019-05-20T17:40:15.631Z,23.03
2019-05-20T17:42:44.936Z,21.93
2019-05-20T17:45:15.284Z,19.93
2019-05-20T17:47:44.600Z,18.50
2019-05-20T17:50:15.748Z,18.60
2019-05-20T17:52:45.106Z,17.20
2019-05-20T17:55:14.911Z,16.00
2019-05-20T17:57:45.403Z,17.03
2019-05-20T18:00:18.289Z,16.37
2019-05-20T18:02:47.601Z,17.90
2019-05-20T18:05:17.195Z,28.80
2019-05-20T18:07:46.500Z,39.63
2019-05-20T18:10:17.660Z,39.63
2019-05-20T18:12:47.659Z,31.77
2019-05-20T18:15:17.808Z,30.30
2019-05-20T18:17:47.162Z,29.63
2019-05-20T18:20:35.813Z,28.80
2019-05-20T18:23:05.137Z,26.20
2019-05-20T18:25:34.484Z,27.67
2019-05-20T18:28:03.865Z,23.03
2019-05-20T18:30:33.174Z,27.83
2019-05-20T18:33:02.468Z,24.67
2019-05-20T18:35:32.692Z,28.37
2019-05-20T18:38:02.268Z,28.17
2019-05-20T18:40:31.576Z,23.50
2019-05-20T18:43:00.899Z,21.07
2019-05-20T18:45:30.205Z,18.50
2019-05-20T18:47:59.522Z,17.20
2019-05-20T18:50:28.836Z,14.20
2019-05-20T18:52:59.221Z,10.60
2019-05-20T18:55:28.539Z,8.80
2019-05-20T18:57:58.425Z,8.93
2019-05-20T19:00:27.863Z,5.87
2019-05-20T19:02:57.221Z,7.63
2019-05-20T19:05:26.560Z,7.27
2019-05-20T19:07:55.864Z,8.77
2019-05-20T19:10:26.386Z,8.63
2019-05-20T19:12:55.704Z,8.37
2019-05-20T19:15:25.009Z,8.93
2019-05-20T19:17:54.339Z,8.40
2019-05-20T19:20:23.638Z,8.23
2019-05-20T19:22:53.029Z,8.83
2019-05-20T19:25:36.735Z,8.57
2019-05-20T19:27:53.494Z,9.83
2019-05-20T19:30:24.132Z,9.40
2019-05-20T19:32:53.509Z,10.13
2019-05-20T19:35:22.817Z,9.20
2019-05-20T19:37:52.193Z,8.83
2019-05-20T19:40:21.568Z,9.30
2019-05-20T19:42:50.884Z,9.83
2019-05-20T19:45:20.192Z,10.27
2019-05-20T19:47:49.501Z,10.17
2019-05-20T19:50:19.184Z,12.13
2019-05-20T19:52:48.681Z,13.60
2019-05-20T19:55:18.999Z,14.27
2019-05-20T19:57:48.681Z,14.30
2019-05-20T20:00:18.537Z,15.03
2019-05-20T20:02:47.895Z,15.63
2019-05-20T20:05:17.217Z,15.00
2019-05-20T20:07:46.532Z,17.80
2019-05-20T20:10:15.838Z,18.27
2019-05-20T20:12:45.142Z,20.00
2019-05-20T20:15:18.445Z,21.83
2019-05-20T20:17:47.753Z,22.23
2019-05-20T20:20:17.133Z,22.13
2019-05-20T20:22:46.503Z,20.70
2019-05-20T20:25:15.839Z,21.80
2019-05-20T20:27:45.490Z,21.37
2019-05-20T20:30:15.579Z,24.27
2019-05-20T20:32:44.904Z,22.17
2019-05-20T20:35:14.684Z,23.73
2019-05-20T20:37:44.964Z,23.83
2019-05-20T20:40:14.346Z,24.47
2019-05-20T20:42:43.661Z,24.03
2019-05-20T20:45:13.864Z,24.70
2019-05-20T20:47:43.171Z,26.23
2019-05-20T20:50:13.028Z,30.00
2019-05-20T20:52:42.328Z,19.47
2019-05-20T20:55:11.805Z,19.03
2019-05-20T20:57:41.140Z,19.17
2019-05-20T21:00:11.312Z,18.67
2019-05-20T21:02:52.961Z,17.13
2019-05-20T21:05:16.065Z,14.87
2019-05-20T21:07:45.605Z,13.53
2019-05-20T21:10:14.976Z,14.47
2019-05-20T21:12:44.360Z,10.10
2019-05-20T21:15:13.756Z,10.20
2019-05-20T21:17:43.065Z,9.83
2019-05-20T21:20:12.710Z,14.13
2019-05-20T21:22:42.028Z,10.50
2019-05-20T21:25:11.639Z,10.40
2019-05-20T21:27:40.952Z,9.33
2019-05-20T21:30:10.500Z,10.33
2019-05-20T21:32:39.813Z,10.07
2019-05-20T21:35:09.369Z,11.53
2019-05-20T21:37:38.860Z,11.33
2019-05-20T21:40:08.674Z,11.90
2019-05-20T21:42:37.984Z,12.50
2019-05-20T21:45:08.344Z,13.60
2019-05-20T21:47:37.648Z,15.20
2019-05-20T21:50:07.309Z,15.23
2019-05-20T21:52:36.616Z,16.50
2019-05-20T21:55:07.009Z,17.13
2019-05-20T21:57:36.310Z,17.50
2019-05-20T22:00:11.088Z,18.93
2019-05-20T22:02:42.017Z,19.43
2019-05-20T22:05:11.576Z,19.80
2019-05-20T22:07:40.892Z,18.57
2019-05-20T22:10:10.538Z,18.30
2019-05-20T22:12:39.867Z,17.60
2019-05-20T22:15:09.236Z,18.57
2019-05-20T22:17:38.552Z,18.30
2019-05-20T22:20:08.000Z,19.30
2019-05-20T22:22:38.956Z,15.23
2019-05-20T22:25:08.284Z,15.57
2019-05-20T22:27:37.594Z,15.23
2019-05-20T22:30:07.739Z,11.73
2019-05-20T22:32:39.756Z,8.20
2019-05-20T22:35:09.121Z,7.43
2019-05-20T22:37:39.362Z,11.83
2019-05-20T22:40:08.811Z,17.17
2019-05-20T22:42:38.119Z,17.47
2019-05-20T22:45:07.563Z,16.23
2019-05-20T22:47:36.880Z,15.43
2019-05-20T22:50:06.399Z,14.50
2019-05-20T22:52:35.740Z,13.03
2019-05-20T22:55:05.787Z,10.97
2019-05-20T22:57:35.088Z,5.70
2019-05-20T23:00:05.831Z,7.17
2019-05-20T23:02:36.761Z,8.53
2019-05-20T23:05:06.520Z,10.87
2019-05-20T23:07:35.830Z,13.83
2019-05-20T23:10:06.752Z,11.10
2019-05-20T23:12:36.052Z,11.13
2019-05-20T23:15:07.044Z,8.57
2019-05-20T23:17:36.348Z,5.60
2019-05-20T23:20:07.853Z,5.20
2019-05-20T23:22:37.166Z,4.93
2019-05-20T23:25:06.602Z,7.73
2019-05-20T23:27:35.983Z,7.83
2019-05-20T23:30:09.073Z,8.20
2019-05-20T23:32:38.371Z,8.27
2019-05-20T23:35:08.017Z,8.87
2019-05-20T23:37:37.328Z,9.83
2019-05-20T23:40:07.069Z,9.30
2019-05-20T23:42:36.401Z,9.93
2019-05-20T23:45:07.551Z,10.37
2019-05-20T23:47:38.324Z,8.83
2019-05-20T23:50:07.860Z,9.00
2019-05-20T23:52:37.171Z,8.83
2019-05-20T23:55:10.264Z,8.07
2019-05-20T23:57:39.576Z,8.03
